Time;durP1;ratioP1;P1;durP2;ratioP2;P2;SDS_P1;SDS_P2;PMS_P1;PMS_P2;Temp;Humidity;BMP_temperature;BMP_pressure;BME280_temperature;BME280_humidity;BME280_pressure;Samples;Min_cycle;Max_cycle;Signal;HPM_P1;HPM_P2
2021/05/21 00:02:05;;;;;;;2.90;2.80;;;15.20;82.40;;;;;;5071588;28;20172;-79
2021/05/21 00:04:31;;;;;;;2.93;2.83;;;15.10;81.40;;;;;;5072340;28;20184;-80
2021/05/21 00:06:57;;;;;;;3.80;3.10;;;15.10;82.20;;;;;;5069472;28;20680;-80
2021/05/21 00:09:22;;;;;;;3.07;2.87;;;15.10;81.90;;;;;;5071827;28;20178;-80
2021/05/21 00:11:48;;;;;;;3.40;3.23;;;15.10;82.00;;;;;;5072682;28;20238;-79
2021/05/21 00:14:14;;;;;;;2.90;2.80;;;15.20;82.10;;;;;;5071827;28;20177;-80
2021/05/21 00:16:40;;;;;;;3.83;2.93;;;15.10;82.50;;;;;;5072726;28;20181;-79
2021/05/21 00:19:05;;;;;;;3.93;3.63;;;15.10;82.50;;;;;;5072197;28;20177;-79
2021/05/21 00:21:31;;;;;;;3.03;2.93;;;15.00;82.50;;;;;;5068681;28;20176;-80
2021/05/21 00:23:57;;;;;;;3.43;3.20;;;15.00;82.50;;;;;;5049989;28;20626;-79
2021/05/21 00:26:22;;;;;;;3.00;2.80;;;15.10;82.50;;;;;;5014285;28;20207;-79
2021/05/21 00:28:48;;;;;;;2.90;2.70;;;14.90;82.20;;;;;;5032500;28;20227;-79
2021/05/21 00:31:14;;;;;;;2.90;2.70;;;14.90;82.70;;;;;;5014345;28;20264;-80
2021/05/21 00:33:40;;;;;;;3.07;2.87;;;14.90;82.90;;;;;;5014557;28;20178;-79
2021/05/21 00:36:06;;;;;;;4.00;2.67;;;14.90;82.60;;;;;;5032461;28;20173;-79
2021/05/21 00:38:31;;;;;;;3.20;2.87;;;14.90;82.90;;;;;;5013878;28;20181;-80
2021/05/21 00:41:00;;;;;;;3.10;2.93;;;14.90;83.40;;;;;;5014604;28;20511;-79
2021/05/21 00:43:33;;;;;;;3.70;2.93;;;15.00;83.30;;;;;;5031568;28;20207;-79
2021/05/21 00:46:00;;;;;;;4.17;3.67;;;15.00;83.00;;;;;;5032126;28;20431;-79
2021/05/21 00:48:26;;;;;;;2.90;2.80;;;14.80;83.40;;;;;;5031131;28;20460;-79
2021/05/21 00:50:52;;;;;;;2.83;2.73;;;14.80;84.60;;;;;;5032385;28;20818;-79
2021/05/21 00:53:21;;;;;;;3.00;2.80;;;14.80;84.70;;;;;;5028126;28;20215;-80
2021/05/21 00:55:46;;;;;;;3.20;2.87;;;14.80;84.70;;;;;;5034234;28;20453;-80
2021/05/21 00:58:16;;;;;;;2.80;2.60;;;14.90;84.60;;;;;;5052075;28;20412;-80
2021/05/21 01:00:42;;;;;;;2.90;2.80;;;14.90;84.20;;;;;;5033875;28;20178;-79
2021/05/21 01:03:07;;;;;;;3.30;3.10;;;14.90;84.30;;;;;;5034346;28;20501;-79
2021/05/21 01:05:33;;;;;;;3.03;2.87;;;15.00;84.50;;;;;;5051223;28;20189;-80
2021/05/21 01:08:02;;;;;;;3.20;3.00;;;15.00;84.10;;;;;;5038061;28;20619;-79
2021/05/21 01:10:28;;;;;;;3.13;2.93;;;15.10;84.30;;;;;;5031321;28;20513;-79
2021/05/21 01:12:53;;;;;;;3.23;2.60;;;15.10;84.30;;;;;;5014463;28;20201;-79
2021/05/21 01:15:22;;;;;;;3.03;2.83;;;15.10;83.60;;;;;;5030991;28;20178;-80
2021/05/21 01:17:48;;;;;;;3.20;2.93;;;15.00;84.40;;;;;;5031597;28;20924;-79
2021/05/21 01:20:14;;;;;;;3.30;3.20;;;15.00;83.90;;;;;;5031854;28;20232;-80
2021/05/21 01:22:40;;;;;;;3.73;3.43;;;15.00;84.20;;;;;;5041700;28;20633;-80
2021/05/21 01:25:07;;;;;;;3.00;2.80;;;14.90;84.20;;;;;;5053666;28;20577;-79
2021/05/21 01:27:33;;;;;;;2.80;2.60;;;14.90;84.90;;;;;;5070978;28;20204;-80
2021/05/21 01:29:59;;;;;;;2.40;2.30;;;14.80;85.40;;;;;;5070666;28;20410;-79
2021/05/21 01:32:25;;;;;;;3.40;3.23;;;14.80;85.50;;;;;;5071737;28;20414;-79
2021/05/21 01:34:51;;;;;;;2.90;2.80;;;14.80;85.90;;;;;;5075680;28;20169;-79
2021/05/21 01:37:21;;;;;;;2.90;2.80;;;14.90;85.70;;;;;;5074262;28;20172;-80
2021/05/21 01:39:49;;;;;;;2.93;2.83;;;14.90;85.60;;;;;;5075866;28;20165;-79
2021/05/21 01:42:15;;;;;;;2.70;2.50;;;14.90;85.00;;;;;;5075400;28;20427;-80
2021/05/21 01:44:42;;;;;;;3.13;2.83;;;14.90;85.50;;;;;;5075024;28;20415;-79
2021/05/21 01:47:14;;;;;;;2.77;2.67;;;14.90;85.60;;;;;;5073933;28;20451;-79
2021/05/21 01:49:40;;;;;;;3.00;2.90;;;14.90;85.70;;;;;;5074662;28;20423;-78
2021/05/21 01:52:06;;;;;;;3.20;2.70;;;14.90;85.40;;;;;;5069417;28;20435;-78
2021/05/21 01:54:32;;;;;;;2.17;2.17;;;14.80;85.50;;;;;;5054464;28;20547;-78
2021/05/21 01:57:00;;;;;;;3.37;2.00;;;14.80;85.90;;;;;;5055354;28;20228;-78
2021/05/21 01:59:26;;;;;;;6.23;2.70;;;14.80;86.00;;;;;;5054539;28;20499;-79
2021/05/21 02:01:52;;;;;;;2.70;2.60;;;14.90;85.80;;;;;;5054132;28;20498;-79
2021/05/21 02:04:28;;;;;;;2.63;2.40;;;14.90;86.00;;;;;;5053690;28;20422;-81
2021/05/21 02:06:53;;;;;;;2.27;2.13;;;14.90;86.60;;;;;;5057661;28;20457;-79
2021/05/21 02:09:19;;;;;;;3.00;2.80;;;15.00;85.90;;;;;;5074633;28;20802;-80
2021/05/21 02:11:45;;;;;;;2.13;2.03;;;15.00;85.80;;;;;;5074759;28;20183;-79
2021/05/21 02:14:10;;;;;;;2.90;2.70;;;15.00;85.10;;;;;;5074952;28;20252;-79
2021/05/21 02:16:36;;;;;;;2.83;2.70;;;14.90;85.70;;;;;;5072548;28;20189;-79
2021/05/21 02:19:02;;;;;;;2.87;2.67;;;15.00;85.80;;;;;;5075140;28;20184;-79
2021/05/21 02:21:32;;;;;;;3.07;2.80;;;15.00;85.50;;;;;;5072956;28;20672;-80
2021/05/21 02:24:02;;;;;;;2.37;2.20;;;15.00;85.80;;;;;;5070725;28;20426;-79
2021/05/21 02:26:28;;;;;;;4.07;2.50;;;15.00;85.50;;;;;;5053930;28;20770;-80
2021/05/21 02:28:53;;;;;;;3.33;3.03;;;15.00;85.40;;;;;;5036896;28;20485;-79
2021/05/21 02:31:19;;;;;;;3.63;3.47;;;15.00;86.40;;;;;;5054333;28;20427;-80
2021/05/21 02:33:45;;;;;;;3.70;3.50;;;15.10;85.30;;;;;;5054038;28;20267;-79
2021/05/21 02:36:11;;;;;;;3.20;3.10;;;15.10;85.20;;;;;;5054614;28;20500;-79
2021/05/21 02:38:37;;;;;;;3.30;3.10;;;15.10;85.40;;;;;;5035995;28;20688;-80
2021/05/21 02:41:02;;;;;;;3.90;3.70;;;15.10;85.20;;;;;;5054487;28;20177;-79
2021/05/21 02:43:28;;;;;;;3.47;3.27;;;15.10;85.10;;;;;;5052231;28;20187;-79
2021/05/21 02:45:54;;;;;;;2.63;2.53;;;15.10;85.00;;;;;;5054300;28;20267;-79
2021/05/21 02:48:19;;;;;;;3.90;3.30;;;15.20;84.80;;;;;;5037842;28;20204;-80
2021/05/21 02:50:45;;;;;;;3.63;3.33;;;15.10;84.70;;;;;;5033790;28;20225;-80
2021/05/21 02:53:11;;;;;;;3.43;3.23;;;15.20;84.60;;;;;;5033952;28;20185;-82
2021/05/21 02:55:36;;;;;;;3.87;3.53;;;15.10;85.10;;;;;;5033565;28;20189;-80
2021/05/21 02:58:03;;;;;;;3.40;3.20;;;15.10;85.10;;;;;;5050009;28;20185;-80
2021/05/21 03:00:29;;;;;;;2.70;2.60;;;15.00;85.10;;;;;;5053082;28;20184;-80
2021/05/21 03:02:56;;;;;;;4.30;3.33;;;15.00;85.70;;;;;;5036262;28;20407;-80
2021/05/21 03:05:22;;;;;;;3.17;3.07;;;15.00;85.60;;;;;;5053895;28;20451;-82
2021/05/21 03:07:54;;;;;;;3.20;3.10;;;14.90;85.70;;;;;;5035821;28;20484;-80
2021/05/21 03:10:25;;;;;;;3.33;3.20;;;14.90;86.00;;;;;;5054074;28;20456;-79
2021/05/21 03:12:50;;;;;;;3.67;3.47;;;14.90;86.40;;;;;;5052375;28;20521;-79
2021/05/21 03:15:16;;;;;;;2.90;2.80;;;14.80;86.90;;;;;;5036268;28;20527;-80
2021/05/21 03:17:42;;;;;;;3.10;3.00;;;14.80;87.00;;;;;;5053173;28;20249;-80
2021/05/21 03:20:09;;;;;;;3.30;3.10;;;14.80;86.90;;;;;;5053781;28;20415;-80
2021/05/21 03:22:34;;;;;;;3.30;3.10;;;14.80;87.20;;;;;;5045582;28;20267;-80
2021/05/21 03:25:03;;;;;;;3.43;3.30;;;14.80;87.20;;;;;;5053990;28;21009;-79
2021/05/21 03:27:31;;;;;;;3.10;3.00;;;14.90;87.20;;;;;;5059524;28;20204;-81
2021/05/21 03:29:58;;;;;;;3.37;3.27;;;14.90;87.10;;;;;;5052636;28;20822;-80
2021/05/21 03:32:23;;;;;;;3.30;3.10;;;14.80;87.00;;;;;;5053210;28;20418;-81
2021/05/21 03:34:49;;;;;;;3.10;3.00;;;14.80;87.50;;;;;;5052902;28;20494;-82
2021/05/21 03:37:15;;;;;;;3.23;3.10;;;14.70;88.30;;;;;;5052461;28;20184;-82
2021/05/21 03:39:41;;;;;;;3.27;3.10;;;14.70;87.80;;;;;;5034916;28;20458;-81
2021/05/21 03:42:07;;;;;;;3.77;3.50;;;14.70;88.40;;;;;;5061446;28;20204;-81
2021/05/21 03:44:33;;;;;;;3.87;3.77;;;14.70;88.30;;;;;;5071300;28;20225;-82
2021/05/21 03:47:01;;;;;;;3.60;3.40;;;14.70;88.50;;;;;;5071937;28;20457;-82
2021/05/21 03:49:31;;;;;;;5.30;5.10;;;14.70;88.70;;;;;;5071319;28;20422;-82
2021/05/21 03:51:58;;;;;;;3.00;2.80;;;14.70;88.50;;;;;;5071891;28;20865;-82
2021/05/21 03:54:24;;;;;;;3.60;3.50;;;14.70;88.50;;;;;;5071600;28;20422;-84
2021/05/21 03:56:51;;;;;;;7.73;7.23;;;14.70;88.00;;;;;;5063572;28;20426;-82
2021/05/21 03:59:17;;;;;;;3.97;3.77;;;14.70;88.00;;;;;;5051917;28;20422;-82
2021/05/21 04:01:45;;;;;;;3.57;3.47;;;14.80;88.20;;;;;;5052255;28;20524;-82
2021/05/21 04:04:11;;;;;;;6.47;6.20;;;14.70;87.80;;;;;;5051817;28;20419;-82
2021/05/21 04:06:37;;;;;;;4.50;4.20;;;14.60;88.50;;;;;;5054286;28;20462;-82
2021/05/21 04:09:07;;;;;;;3.17;2.97;;;14.60;88.70;;;;;;5070990;28;20211;-82
2021/05/21 04:11:37;;;;;;;5.70;5.50;;;14.60;88.70;;;;;;5060974;28;20228;-82
2021/05/21 04:14:05;;;;;;;3.30;3.20;;;14.60;88.70;;;;;;5062271;28;20532;-81
2021/05/21 04:16:31;;;;;;;3.47;3.27;;;14.70;88.90;;;;;;5071837;28;20508;-82
2021/05/21 04:18:57;;;;;;;4.20;3.80;;;14.60;89.20;;;;;;5064583;28;20551;-82
2021/05/21 04:21:24;;;;;;;3.43;3.23;;;14.70;89.20;;;;;;5051458;28;20180;-81
2021/05/21 04:23:50;;;;;;;3.53;3.23;;;14.60;89.10;;;;;;5049162;28;20441;-82
2021/05/21 04:26:16;;;;;;;4.73;4.33;;;14.70;89.20;;;;;;5032708;28;20903;-81
2021/05/21 04:28:42;;;;;;;3.77;3.47;;;14.70;88.70;;;;;;5013887;28;20534;-82
2021/05/21 04:31:08;;;;;;;2.87;2.67;;;14.70;89.10;;;;;;4998523;28;20450;-81
2021/05/21 04:33:35;;;;;;;2.60;2.50;;;14.80;89.00;;;;;;5016414;28;20420;-82
2021/05/21 04:36:00;;;;;;;2.80;2.50;;;14.80;89.20;;;;;;5052409;28;20168;-82
2021/05/21 04:38:27;;;;;;;3.00;2.90;;;14.70;88.70;;;;;;5034271;28;20567;-85
2021/05/21 04:40:53;;;;;;;3.30;3.10;;;14.80;89.00;;;;;;5034014;28;20189;-82
2021/05/21 04:43:26;;;;;;;3.67;3.57;;;14.80;89.00;;;;;;5034446;28;20746;-81
2021/05/21 04:45:53;;;;;;;3.20;3.10;;;14.70;89.20;;;;;;5028958;28;20177;-82
2021/05/21 04:48:19;;;;;;;6.13;5.93;;;14.80;89.00;;;;;;5052174;28;20945;-81
2021/05/21 04:50:46;;;;;;;3.17;3.00;;;14.70;88.20;;;;;;5033378;28;20414;-82
2021/05/21 04:53:12;;;;;;;5.57;5.37;;;14.70;89.20;;;;;;5034356;28;20410;-81
2021/05/21 04:55:40;;;;;;;6.23;5.93;;;14.80;89.30;;;;;;5050993;28;20445;-82
2021/05/21 04:58:06;;;;;;;3.30;3.00;;;14.80;89.60;;;;;;5034608;28;20410;-81
2021/05/21 05:00:32;;;;;;;4.33;4.03;;;14.90;89.10;;;;;;5031253;28;20419;-81
2021/05/21 05:03:06;;;;;;;3.60;3.37;;;14.90;88.60;;;;;;5032138;28;20423;-82
2021/05/21 05:05:33;;;;;;;4.87;4.57;;;14.90;89.30;;;;;;5013764;28;20635;-82
2021/05/21 05:07:59;;;;;;;4.20;4.00;;;14.90;89.10;;;;;;5017496;28;20470;-81
2021/05/21 05:10:25;;;;;;;3.33;3.13;;;15.00;89.80;;;;;;5036184;28;20439;-81
2021/05/21 05:12:54;;;;;;;3.37;3.17;;;15.00;89.00;;;;;;5017696;28;20176;-81
2021/05/21 05:15:20;;;;;;;3.20;3.10;;;15.10;90.20;;;;;;5037175;28;20425;-82
2021/05/21 05:17:48;;;;;;;2.80;2.70;;;15.10;89.30;;;;;;5017830;28;20827;-82
2021/05/21 05:20:15;;;;;;;2.77;2.67;;;15.10;88.90;;;;;;5035906;28;20420;-83
2021/05/21 05:22:41;;;;;;;3.60;3.30;;;15.10;89.00;;;;;;5045150;28;20424;-81
2021/05/21 05:25:09;;;;;;;2.57;2.47;;;15.00;89.10;;;;;;5038289;28;20455;-83
2021/05/21 05:27:35;;;;;;;3.60;3.40;;;15.10;89.80;;;;;;5054992;28;20485;-83
2021/05/21 05:30:02;;;;;;;3.00;2.90;;;15.20;89.30;;;;;;5055304;28;20424;-83
2021/05/21 05:32:27;;;;;;;3.27;3.13;;;15.20;90.10;;;;;;5055361;28;20407;-82
2021/05/21 05:34:53;;;;;;;2.77;2.57;;;15.20;89.20;;;;;;5062946;28;20451;-82
2021/05/21 05:37:19;;;;;;;5.27;4.87;;;15.20;89.40;;;;;;5074110;28;20236;-82
2021/05/21 05:39:45;;;;;;;2.60;2.40;;;15.30;89.90;;;;;;5063624;28;20192;-82
2021/05/21 05:42:10;;;;;;;5.60;5.40;;;15.30;89.80;;;;;;5057415;28;20188;-82
2021/05/21 05:44:36;;;;;;;4.90;3.30;;;15.40;89.20;;;;;;5054304;28;20203;-82
2021/05/21 05:47:02;;;;;;;3.30;3.10;;;15.40;88.60;;;;;;5054518;28;20209;-82
2021/05/21 05:49:27;;;;;;;2.43;2.33;;;15.40;88.60;;;;;;5064202;28;20505;-81
2021/05/21 05:51:53;;;;;;;4.47;4.27;;;15.50;89.00;;;;;;5074259;28;20180;-83
2021/05/21 05:54:19;;;;;;;2.53;2.43;;;15.50;89.20;;;;;;5073781;28;20177;-82
2021/05/21 05:56:45;;;;;;;3.67;3.40;;;15.60;89.10;;;;;;5072649;28;20257;-81
2021/05/21 05:59:10;;;;;;;3.13;2.93;;;15.50;89.60;;;;;;5062940;28;20246;-82
2021/05/21 06:01:36;;;;;;;3.80;3.60;;;15.60;89.00;;;;;;5060013;28;20506;-82
2021/05/21 06:04:02;;;;;;;2.90;2.70;;;15.70;88.70;;;;;;5074365;28;20234;-82
2021/05/21 06:06:29;;;;;;;3.30;3.10;;;15.70;88.90;;;;;;5063779;28;20192;-82
2021/05/21 06:08:58;;;;;;;3.30;3.20;;;15.80;88.50;;;;;;5058514;28;20927;-82
2021/05/21 06:11:25;;;;;;;3.03;2.80;;;15.80;88.80;;;;;;5061550;28;20837;-84
2021/05/21 06:13:51;;;;;;;3.60;2.83;;;15.80;87.90;;;;;;5072947;28;20527;-83
2021/05/21 06:16:17;;;;;;;3.03;2.83;;;15.90;91.60;;;;;;5056555;28;20783;-83
2021/05/21 06:18:43;;;;;;;3.07;2.87;;;16.00;90.00;;;;;;5056945;28;20961;-84
2021/05/21 06:21:10;;;;;;;3.00;2.90;;;16.20;92.50;;;;;;5065008;28;20495;-82
2021/05/21 06:23:37;;;;;;;3.33;3.23;;;16.40;90.30;;;;;;5073320;28;20422;-84
2021/05/21 06:26:39;;;;;;;4.10;3.80;;;16.60;91.10;;;;;;5051312;28;20465;-88
2021/05/21 06:28:55;;;;;;;3.27;3.17;;;16.60;87.80;;;;;;5041989;28;20494;-83
2021/05/21 06:31:22;;;;;;;4.70;4.50;;;16.70;88.00;;;;;;5017630;28;20412;-84
2021/05/21 06:33:48;;;;;;;4.00;3.70;;;16.90;89.80;;;;;;5047717;28;20465;-83
2021/05/21 06:36:14;;;;;;;6.23;5.83;;;16.90;85.60;;;;;;5054926;28;20434;-83
2021/05/21 06:38:41;;;;;;;4.60;4.50;;;16.90;87.10;;;;;;5051089;28;20433;-83
2021/05/21 06:41:08;;;;;;;5.00;3.63;;;17.00;86.30;;;;;;5036918;28;20423;-81
2021/05/21 06:43:34;;;;;;;3.60;3.40;;;17.10;87.30;;;;;;5043688;28;20432;-83
2021/05/21 06:46:02;;;;;;;4.20;3.90;;;17.10;84.90;;;;;;5033174;28;20461;-83
2021/05/21 06:48:34;;;;;;;4.47;4.20;;;17.10;86.70;;;;;;5040352;28;20506;-83
2021/05/21 06:51:05;;;;;;;3.57;3.37;;;17.20;88.70;;;;;;5045460;28;20416;-82
2021/05/21 06:53:31;;;;;;;4.70;4.50;;;17.20;85.20;;;;;;5041979;28;20501;-82
2021/05/21 06:55:57;;;;;;;5.37;4.80;;;17.10;85.80;;;;;;5018926;28;20486;-83
2021/05/21 06:58:25;;;;;;;4.33;4.03;;;17.10;83.90;;;;;;5019218;28;20488;-80
2021/05/21 07:00:52;;;;;;;5.80;4.23;;;17.10;83.20;;;;;;5049480;28;20463;-83
2021/05/21 07:03:18;;;;;;;3.03;2.50;;;16.90;82.50;;;;;;5016740;28;20893;-84
2021/05/21 07:05:45;;;;;;;2.40;2.20;;;16.80;82.80;;;;;;5028916;28;20421;-84
2021/05/21 07:08:11;;;;;;;3.13;2.90;;;16.70;82.70;;;;;;5053975;28;20660;-84
2021/05/21 07:10:37;;;;;;;3.10;2.70;;;16.70;83.30;;;;;;5035642;28;20465;-85
2021/05/21 07:13:13;;;;;;;3.97;2.90;;;16.70;83.40;;;;;;5054076;28;20811;-84
2021/05/21 07:15:40;;;;;;;5.53;2.53;;;16.60;83.30;;;;;;5016944;28;20424;-92
2021/05/21 07:18:07;;;;;;;2.70;2.50;;;16.60;82.30;;;;;;5022102;28;20424;-95
2021/05/21 07:20:33;;;;;;;3.63;2.53;;;16.70;84.30;;;;;;5020421;28;20433;-90
2021/05/21 07:22:59;;;;;;;3.97;2.90;;;16.70;83.40;;;;;;5023773;28;20423;-91
2021/05/21 07:25:25;;;;;;;3.30;3.10;;;16.70;82.90;;;;;;5043634;28;20470;-94
2021/05/21 07:27:51;;;;;;;3.63;2.80;;;16.70;82.10;;;;;;5065633;28;20690;-85
2021/05/21 07:30:18;;;;;;;2.80;2.67;;;16.80;81.60;;;;;;5066185;28;20512;-85
2021/05/21 07:32:43;;;;;;;3.03;2.80;;;16.70;82.00;;;;;;5052729;28;20759;-85
2021/05/21 07:35:10;;;;;;;2.90;2.60;;;16.70;82.30;;;;;;5052742;28;20419;-85
2021/05/21 07:37:36;;;;;;;3.30;2.70;;;16.70;82.80;;;;;;5071166;28;20430;-85
2021/05/21 07:40:06;;;;;;;2.67;2.57;;;16.70;82.60;;;;;;5066023;28;20442;-85
2021/05/21 07:42:31;;;;;;;3.20;2.90;;;16.70;82.70;;;;;;5071106;28;20770;-83
2021/05/21 07:44:57;;;;;;;2.67;2.30;;;16.50;80.70;;;;;;5054079;28;20430;-86
2021/05/21 07:47:23;;;;;;;2.70;2.50;;;16.40;83.10;;;;;;5060420;28;20457;-84
2021/05/21 07:49:48;;;;;;;2.80;2.60;;;16.40;81.70;;;;;;5071215;28;20199;-84
2021/05/21 07:52:14;;;;;;;3.30;2.40;;;16.50;82.50;;;;;;5057609;28;20185;-87
2021/05/21 07:54:40;;;;;;;3.43;2.60;;;16.70;82.00;;;;;;5066484;28;20184;-84
2021/05/21 07:57:06;;;;;;;4.40;2.63;;;16.70;81.20;;;;;;5072989;28;20183;-82
2021/05/21 07:59:32;;;;;;;3.33;3.03;;;16.70;80.90;;;;;;5056360;28;20187;-82
2021/05/21 08:01:57;;;;;;;3.17;2.97;;;16.70;81.10;;;;;;5052734;28;20903;-81
2021/05/21 08:04:23;;;;;;;3.70;2.57;;;16.70;81.10;;;;;;5052110;28;20216;-83
2021/05/21 08:06:49;;;;;;;4.23;3.23;;;16.90;81.60;;;;;;5054590;28;20190;-83
2021/05/21 08:09:17;;;;;;;3.90;2.77;;;17.00;80.30;;;;;;5060227;28;20540;-83
2021/05/21 08:11:42;;;;;;;4.33;3.93;;;17.20;77.40;;;;;;5067916;28;20283;-83
2021/05/21 08:14:09;;;;;;;3.80;2.20;;;17.20;75.20;;;;;;5072853;28;20451;-83
2021/05/21 08:16:36;;;;;;;6.40;2.30;;;17.20;75.00;;;;;;5064403;28;20176;-83
2021/05/21 08:19:02;;;;;;;3.30;1.97;;;17.00;73.30;;;;;;5063699;28;20479;-83
2021/05/21 08:21:28;;;;;;;5.07;3.13;;;16.90;74.60;;;;;;5052980;28;20419;-83
2021/05/21 08:23:55;;;;;;;7.47;2.83;;;16.70;75.10;;;;;;5063725;28;20534;-83
2021/05/21 08:26:30;;;;;;;3.73;2.70;;;16.70;74.40;;;;;;5052787;28;20440;-83
2021/05/21 08:28:57;;;;;;;7.80;2.40;;;16.60;72.00;;;;;;5053330;28;20834;-83
2021/05/21 08:31:24;;;;;;;5.57;2.57;;;16.40;71.70;;;;;;5037602;28;20430;-83
2021/05/21 08:33:51;;;;;;;4.90;2.47;;;16.50;74.50;;;;;;5034048;28;20411;-83
2021/05/21 08:36:20;;;;;;;3.73;2.37;;;16.60;75.20;;;;;;5015032;28;20900;-83
2021/05/21 08:38:46;;;;;;;3.20;3.00;;;16.80;72.80;;;;;;5031634;28;20423;-83
2021/05/21 08:41:22;;;;;;;4.77;3.10;;;16.80;72.00;;;;;;5031623;28;20401;-82
2021/05/21 08:43:49;;;;;;;5.03;4.73;;;16.80;73.10;;;;;;5018755;28;20416;-84
2021/05/21 08:46:16;;;;;;;3.10;2.90;;;16.90;73.90;;;;;;5013763;28;20407;-83
2021/05/21 08:48:43;;;;;;;5.83;5.10;;;17.20;75.60;;;;;;5021946;28;20447;-84
2021/05/21 08:51:10;;;;;;;6.07;5.47;;;17.40;74.00;;;;;;5032716;28;20425;-83
2021/05/21 08:53:37;;;;;;;5.53;3.43;;;17.50;73.00;;;;;;5004387;28;20442;-83
2021/05/21 08:56:04;;;;;;;7.20;3.40;;;17.50;71.70;;;;;;5037871;28;20799;-83
2021/05/21 08:58:30;;;;;;;5.53;2.60;;;17.40;70.70;;;;;;5032828;28;20777;-83
2021/05/21 09:00:56;;;;;;;9.10;4.00;;;17.20;69.20;;;;;;5035616;28;20519;-83
2021/05/21 09:03:24;;;;;;;2.73;2.53;;;17.10;69.80;;;;;;5034294;28;20683;-82
2021/05/21 09:06:14;;;;;;;4.23;2.80;;;17.00;69.20;;;;;;5033291;28;20514;-83
2021/05/21 09:08:59;;;;;;;3.63;3.27;;;17.00;72.00;;;;;;5044024;28;20943;-82
2021/05/21 09:11:30;;;;;;;5.30;2.90;;;17.20;73.00;;;;;;5022184;28;20759;-82
2021/05/21 09:14:02;;;;;;;4.57;3.00;;;17.50;72.70;;;;;;5051740;28;20499;-84
2021/05/21 09:16:31;;;;;;;5.20;2.50;;;17.80;72.60;;;;;;5034527;28;20408;-82
2021/05/21 09:19:04;;;;;;;3.50;3.17;;;18.10;75.30;;;;;;5035652;28;20435;-83
2021/05/21 09:21:52;;;;;;;6.37;3.00;;;18.40;71.60;;;;;;5015419;28;20413;-83
2021/05/21 09:24:41;;;;;;;3.13;2.93;;;18.60;67.20;;;;;;5031908;28;20458;-85
2021/05/21 09:27:08;;;;;;;3.20;2.90;;;18.70;66.80;;;;;;5070405;28;20451;-86
2021/05/21 09:29:45;;;;;;;9.03;4.90;;;18.80;66.70;;;;;;5070369;28;20407;-82
2021/05/21 09:32:34;;;;;;;6.00;3.23;;;18.60;64.40;;;;;;5059800;28;20412;-83
2021/05/21 09:35:10;;;;;;;6.17;5.63;;;18.40;65.70;;;;;;5049707;28;20449;-84
2021/05/21 09:37:47;;;;;;;4.20;3.90;;;18.10;64.90;;;;;;5051712;28;20514;-83
2021/05/21 09:40:21;;;;;;;7.27;3.53;;;17.90;67.70;;;;;;5052473;28;20427;-83
2021/05/21 09:43:00;;;;;;;6.40;3.63;;;17.90;66.70;;;;;;5050931;28;20412;-84
2021/05/21 09:45:33;;;;;;;7.67;3.13;;;18.00;66.50;;;;;;5052206;28;20911;-84
2021/05/21 09:48:00;;;;;;;6.50;3.50;;;18.30;68.70;;;;;;5051452;28;20444;-84
2021/05/21 09:50:38;;;;;;;3.63;3.27;;;18.40;66.40;;;;;;5050922;28;20428;-84
2021/05/21 09:53:05;;;;;;;4.40;3.50;;;18.60;66.80;;;;;;5051442;28;20420;-84
2021/05/21 09:55:39;;;;;;;6.67;3.00;;;18.80;65.10;;;;;;5055419;28;20763;-83
2021/05/21 09:58:05;;;;;;;3.60;2.90;;;18.90;62.40;;;;;;5055379;28;20408;-84
2021/05/21 10:00:31;;;;;;;3.73;2.83;;;19.00;61.60;;;;;;5055596;28;20409;-84
2021/05/21 10:02:58;;;;;;;5.03;2.33;;;19.20;63.90;;;;;;5053808;28;20438;-84
2021/05/21 10:05:24;;;;;;;4.80;3.07;;;19.20;59.20;;;;;;5055288;28;20944;-84
2021/05/21 10:07:52;;;;;;;4.60;3.50;;;19.30;61.90;;;;;;5055016;28;20494;-84
2021/05/21 10:10:25;;;;;;;7.50;4.60;;;19.50;63.20;;;;;;5054332;28;20478;-83
2021/05/21 10:12:52;;;;;;;4.13;2.93;;;19.50;59.10;;;;;;5053638;28;20443;-84
2021/05/21 10:15:18;;;;;;;5.93;2.90;;;19.60;61.60;;;;;;5054515;28;20405;-84
2021/05/21 10:17:45;;;;;;;3.23;3.00;;;19.70;61.30;;;;;;5055044;28;21027;-84
2021/05/21 10:20:15;;;;;;;5.30;3.50;;;19.80;61.20;;;;;;5054164;28;20427;-84
2021/05/21 10:22:43;;;;;;;7.00;3.20;;;19.80;58.10;;;;;;5054027;28;20466;-84
2021/05/21 10:25:21;;;;;;;6.20;3.07;;;19.70;57.30;;;;;;5042627;28;20476;-84
2021/05/21 10:27:51;;;;;;;7.30;2.50;;;19.80;58.40;;;;;;5016962;28;20453;-85
2021/05/21 10:30:19;;;;;;;5.00;2.97;;;19.80;54.70;;;;;;5017497;28;20905;-83
2021/05/21 10:32:45;;;;;;;5.03;3.73;;;19.80;55.50;;;;;;5033897;28;20425;-84
2021/05/21 10:35:20;;;;;;;5.30;3.67;;;19.90;57.60;;;;;;5017343;28;20420;-84
2021/05/21 10:37:47;;;;;;;4.47;3.40;;;20.00;53.70;;;;;;5017564;28;20470;-86
2021/05/21 10:40:25;;;;;;;3.53;3.23;;;20.10;53.30;;;;;;5034924;28;20428;-84
2021/05/21 10:42:52;;;;;;;3.77;2.90;;;20.10;54.40;;;;;;5016663;28;20458;-84
2021/05/21 10:45:21;;;;;;;4.53;3.20;;;19.90;53.00;;;;;;5034476;28;20893;-84
2021/05/21 10:47:59;;;;;;;6.50;3.00;;;19.70;53.00;;;;;;5034343;28;20979;-85
2021/05/21 10:50:32;;;;;;;3.37;2.83;;;19.70;54.10;;;;;;5035203;28;20785;-83
2021/05/21 10:53:01;;;;;;;4.83;4.33;;;19.60;53.40;;;;;;5034211;28;20390;-84
2021/05/21 10:55:48;;;;;;;5.53;3.57;;;19.60;54.70;;;;;;5016744;28;20414;-83
2021/05/21 10:58:30;;;;;;;7.07;2.93;;;19.70;55.20;;;;;;5016782;28;20428;-83
2021/05/21 11:01:18;;;;;;;3.10;2.13;;;19.70;54.00;;;;;;5016349;28;20413;-83
2021/05/21 11:03:56;;;;;;;6.53;3.60;;;19.50;54.60;;;;;;5016613;28;20425;-83
2021/05/21 11:06:26;;;;;;;6.80;4.40;;;19.30;54.30;;;;;;5016468;28;20508;-84
2021/05/21 11:09:07;;;;;;;4.57;3.30;;;19.30;55.60;;;;;;5016204;28;20547;-84
2021/05/21 11:11:48;;;;;;;5.20;3.10;;;19.40;55.40;;;;;;5016734;28;20432;-84
2021/05/21 11:14:25;;;;;;;4.87;2.77;;;19.60;56.00;;;;;;5016697;28;20420;-84
2021/05/21 11:16:52;;;;;;;6.20;3.20;;;19.80;55.30;;;;;;5016003;28;20474;-85
2021/05/21 11:19:21;;;;;;;6.73;2.33;;;20.10;56.00;;;;;;5016205;28;20994;-84
2021/05/21 11:21:50;;;;;;;5.50;2.90;;;20.20;55.40;;;;;;5016687;28;20456;-84
2021/05/21 11:24:15;;;;;;;6.20;2.20;;;20.30;54.20;;;;;;5033815;28;20472;-84
2021/05/21 11:26:42;;;;;;;4.63;3.10;;;20.40;53.30;;;;;;5034137;28;20421;-87
2021/05/21 11:29:08;;;;;;;4.40;2.80;;;20.20;53.50;;;;;;5015948;28;20210;-85
2021/05/21 11:31:41;;;;;;;7.40;2.70;;;20.20;54.00;;;;;;5033672;28;20409;-81
2021/05/21 11:34:11;;;;;;;4.97;2.80;;;20.30;54.20;;;;;;5032999;28;20440;-82
2021/05/21 11:36:38;;;;;;;6.50;2.70;;;20.60;54.00;;;;;;5020562;28;20779;-81
2021/05/21 11:39:05;;;;;;;4.77;2.60;;;20.60;52.50;;;;;;5044206;28;20463;-81
2021/05/21 11:41:37;;;;;;;4.93;3.10;;;20.60;52.60;;;;;;5042617;28;20807;-81
2021/05/21 11:44:09;;;;;;;4.67;2.97;;;20.60;51.90;;;;;;5047540;28;21104;-82
2021/05/21 11:46:42;;;;;;;3.03;2.77;;;20.60;51.20;;;;;;5041016;28;20451;-83
2021/05/21 11:49:19;;;;;;;5.40;2.60;;;20.60;52.00;;;;;;5035229;28;20531;-86
2021/05/21 11:51:53;;;;;;;3.33;2.77;;;20.50;53.00;;;;;;5053878;28;20518;-85
2021/05/21 11:54:20;;;;;;;4.30;3.37;;;20.20;51.70;;;;;;5035546;28;20514;-86
2021/05/21 11:56:46;;;;;;;2.70;2.50;;;20.30;53.70;;;;;;5053042;28;20759;-86
2021/05/21 11:59:14;;;;;;;4.37;2.70;;;20.40;52.50;;;;;;5035035;28;20416;-87
2021/05/21 12:02:01;;;;;;;5.23;2.70;;;20.50;54.50;;;;;;5035603;28;20474;-87
2021/05/21 12:04:33;;;;;;;5.20;2.93;;;20.60;51.50;;;;;;5048934;28;20453;-86
2021/05/21 12:07:01;;;;;;;4.00;2.40;;;20.60;52.30;;;;;;5015655;28;20406;-87
2021/05/21 12:09:27;;;;;;;3.87;2.73;;;20.60;50.50;;;;;;5021520;28;20486;-87
2021/05/21 12:11:56;;;;;;;5.50;2.87;;;20.70;52.90;;;;;;5052521;28;20773;-88
2021/05/21 12:14:24;;;;;;;4.10;2.87;;;20.80;54.90;;;;;;5033520;28;20769;-87
2021/05/21 12:16:53;;;;;;;4.10;2.90;;;20.80;52.80;;;;;;5052915;28;20416;-86
2021/05/21 12:19:21;;;;;;;4.23;2.37;;;20.70;50.60;;;;;;5028230;28;20781;-87
2021/05/21 12:21:50;;;;;;;5.57;3.40;;;20.60;49.80;;;;;;5033081;28;20413;-87
2021/05/21 12:24:19;;;;;;;3.10;2.77;;;20.40;49.20;;;;;;5030695;28;20794;-87
2021/05/21 12:26:48;;;;;;;3.00;2.70;;;20.30;51.20;;;;;;5051929;28;20417;-86
2021/05/21 12:29:15;;;;;;;4.90;3.30;;;20.10;51.10;;;;;;5053071;28;20456;-87
2021/05/21 12:31:56;;;;;;;8.47;4.70;;;20.00;51.20;;;;;;5054621;28;20432;-87
2021/05/21 12:34:23;;;;;;;6.93;2.60;;;20.00;51.30;;;;;;5054058;28;20498;-88
2021/05/21 12:37:08;;;;;;;2.60;2.23;;;20.10;51.50;;;;;;5066012;28;20771;-82
2021/05/21 12:39:43;;;;;;;5.47;4.10;;;20.20;51.20;;;;;;5057072;28;20416;-83
2021/05/21 12:42:13;;;;;;;5.43;3.53;;;20.20;51.80;;;;;;5049764;28;20891;-82
2021/05/21 12:44:43;;;;;;;4.50;2.40;;;20.30;51.00;;;;;;5044671;28;20411;-82
2021/05/21 12:47:09;;;;;;;2.93;2.27;;;20.40;52.00;;;;;;5069737;28;20506;-82
2021/05/21 12:49:35;;;;;;;5.10;3.43;;;20.40;51.10;;;;;;5070463;28;20510;-82
2021/05/21 12:52:07;;;;;;;5.73;3.30;;;20.20;50.50;;;;;;5071215;28;20511;-82
2021/05/21 12:54:40;;;;;;;5.90;2.83;;;20.00;50.60;;;;;;5066876;28;20421;-82